Axtell, Utah
Current Conditions -  °F | °C
As of 10:35 PM on Wednesday 17 Dec 2014 (Local Time) from KDTA Reporting Station
Overcast Overcast  
Wind Chill:   Ceiling: 9000
Heat Index:   Visibility: 10mi
Dew Point:   Wind: 0mph
Humidity: 90%   Direction: NA
Pressure: 30.07"   Gusts: NA
Location:  39.06°N, 111.82°W
Report Text: KDTA 180535Z AUTO 00000KT 10SM OVC090 02/00 A3007 RMK AO1 T00160001
Loading
Personal Weather Stations






























Interactive Weather Map New forecast layout! Learn more

10-Day Weather Forecast

Advertisements
Track Severe Weather on mobile